Time;durP1;ratioP1;P1;durP2;ratioP2;P2;SDS_P1;SDS_P2;PMS_P1;PMS_P2;Temp;Humidity;BMP_temperature;BMP_pressure;BME280_temperature;BME280_humidity;BME280_pressure;Samples;Min_cycle;Max_cycle;Signal;HPM_P1;HPM_P2
2023/09/18 00:00:11;;;;;;;21.60;19.53;;;;;;;;;;2612831;39;20787;-79
2023/09/18 00:05:41;;;;;;;23.53;21.20;;;;;;;;;;2612654;39;20810;-78
2023/09/18 00:11:11;;;;;;;26.07;22.30;;;;;;;;;;2611420;54;20457;-80
2023/09/18 00:16:41;;;;;;;28.00;20.90;;;;;;;;;;2612625;54;20414;-80
2023/09/18 00:22:11;;;;;;;24.87;21.90;;;;;;;;;;2612776;54;20411;-81
2023/09/18 00:31:18;;;;;;;26.40;21.37;;;;;;;;;;2613944;54;20464;-81
2023/09/18 00:36:48;;;;;;;31.57;23.13;;;;;;;;;;2613636;54;20426;-81
2023/09/18 00:42:18;;;;;;;22.90;20.40;;;;;;;;;;2613783;54;20396;-81
2023/09/18 00:47:48;;;;;;;25.10;21.17;;;;;;;;;;2613604;54;20427;-81
2023/09/18 00:53:22;;;;;;;22.40;19.27;;;;;;;;;;2613916;39;20789;-80
2023/09/18 00:58:54;;;;;;;18.37;15.50;;;;;;;;;;2613674;54;20398;-80
2023/09/18 01:04:28;;;;;;;22.20;18.37;;;;;;;;;;2617000;54;20446;-80
2023/09/18 01:09:58;;;;;;;16.53;14.73;;;;;;;;;;2616735;54;20382;-79
2023/09/18 01:15:31;;;;;;;20.50;14.80;;;;;;;;;;2616774;54;20390;-80
2023/09/18 01:21:00;;;;;;;15.83;13.37;;;;;;;;;;2616441;54;20419;-79
2023/09/18 01:26:30;;;;;;;12.93;9.97;;;;;;;;;;2615966;54;20467;-79
2023/09/18 01:32:00;;;;;;;15.53;12.40;;;;;;;;;;2615853;54;20455;-77
2023/09/18 01:37:30;;;;;;;15.53;11.53;;;;;;;;;;2616313;54;20422;-79
2023/09/18 01:43:00;;;;;;;13.90;11.33;;;;;;;;;;2615918;54;20412;-78
2023/09/18 01:48:30;;;;;;;16.10;10.77;;;;;;;;;;2614970;54;20436;-77
2023/09/18 01:54:01;;;;;;;13.00;11.53;;;;;;;;;;2615439;54;20379;-79
2023/09/18 01:59:30;;;;;;;21.20;10.50;;;;;;;;;;2614571;54;20483;-78
2023/09/18 02:05:00;;;;;;;11.73;10.40;;;;;;;;;;2614489;54;20416;-78
2023/09/18 02:10:30;;;;;;;10.83;9.67;;;;;;;;;;2615169;54;21053;-78
2023/09/18 02:16:00;;;;;;;12.30;9.57;;;;;;;;;;2615803;39;20764;-79
2023/09/18 02:21:30;;;;;;;11.03;9.63;;;;;;;;;;2616424;54;20391;-77
2023/09/18 02:33:07;;;;;;;10.43;9.43;;;;;;;;;;2615772;39;20789;-79
2023/09/18 02:38:36;;;;;;;15.20;10.37;;;;;;;;;;2615462;54;20413;-79
2023/09/18 02:44:06;;;;;;;10.80;9.43;;;;;;;;;;2614303;54;22350;-79
2023/09/18 02:49:36;;;;;;;11.23;10.03;;;;;;;;;;2616787;54;20382;-79
2023/09/18 02:55:06;;;;;;;12.13;9.17;;;;;;;;;;2616134;54;20390;-78
2023/09/18 03:00:35;;;;;;;9.20;8.30;;;;;;;;;;2616562;54;20435;-79
2023/09/18 03:06:06;;;;;;;9.00;8.10;;;;;;;;;;2616417;54;20407;-78
2023/09/18 03:11:35;;;;;;;10.10;8.50;;;;;;;;;;2617025;54;20419;-79
2023/09/18 03:17:05;;;;;;;8.87;8.00;;;;;;;;;;2616290;54;20401;-80
2023/09/18 03:19:50;;;;;;;11.13;8.17;;;;;;;;;;2616669;54;20411;-81
2023/09/18 03:22:17;;;;;;;9.03;8.07;;;;;;;;;;2615353;54;20430;-81
2023/09/18 03:31:21;;;;;;;10.63;8.53;;;;;;;;;;2615974;54;20386;-81
2023/09/18 03:36:51;;;;;;;9.50;8.23;;;;;;;;;;2615765;54;20922;-80
2023/09/18 03:42:21;;;;;;;12.00;8.40;;;;;;;;;;2615230;54;20407;-80
2023/09/18 03:47:51;;;;;;;8.90;8.20;;;;;;;;;;2615204;54;20929;-78
2023/09/18 03:53:21;;;;;;;10.97;8.63;;;;;;;;;;2614812;54;20398;-78
2023/09/18 03:58:51;;;;;;;9.90;9.00;;;;;;;;;;2615164;54;20395;-78
2023/09/18 04:04:21;;;;;;;10.30;9.30;;;;;;;;;;2616109;54;20955;-78
2023/09/18 04:09:50;;;;;;;9.50;8.70;;;;;;;;;;2616251;54;20961;-79
2023/09/18 04:15:21;;;;;;;10.07;9.17;;;;;;;;;;2615776;54;20387;-78
2023/09/18 04:20:51;;;;;;;11.40;9.07;;;;;;;;;;2615311;39;20840;-78
2023/09/18 04:26:21;;;;;;;9.43;8.43;;;;;;;;;;2615667;54;20371;-76
2023/09/18 04:31:50;;;;;;;17.57;9.43;;;;;;;;;;2615065;54;20491;-78
2023/09/18 04:37:20;;;;;;;9.00;8.07;;;;;;;;;;2615197;54;21060;-78
2023/09/18 04:42:49;;;;;;;12.63;8.57;;;;;;;;;;2615470;54;20374;-78
2023/09/18 04:48:19;;;;;;;9.50;8.60;;;;;;;;;;2615677;54;20386;-77
2023/09/18 04:53:48;;;;;;;11.97;8.10;;;;;;;;;;2614388;39;20797;-77
2023/09/18 04:59:18;;;;;;;9.00;8.10;;;;;;;;;;2614248;39;20736;-77
2023/09/18 05:04:47;;;;;;;13.00;7.53;;;;;;;;;;2614353;54;20379;-75
2023/09/18 05:10:17;;;;;;;12.57;7.23;;;;;;;;;;2614594;54;20447;-77
2023/09/18 05:15:47;;;;;;;11.77;8.93;;;;;;;;;;2613246;54;20419;-78
2023/09/18 05:21:22;;;;;;;9.43;7.47;;;;;;;;;;2615362;39;21212;-77
2023/09/18 05:26:52;;;;;;;10.10;8.30;;;;;;;;;;2614560;54;20835;-77
2023/09/18 05:35:57;;;;;;;14.67;7.63;;;;;;;;;;2614165;54;20933;-77
2023/09/18 05:41:28;;;;;;;9.83;7.50;;;;;;;;;;2613762;54;20391;-79
2023/09/18 05:46:58;;;;;;;9.63;8.10;;;;;;;;;;2614415;54;20964;-79
2023/09/18 05:52:28;;;;;;;15.17;13.67;;;;;;;;;;2614538;54;21027;-79
2023/09/18 05:57:57;;;;;;;13.20;9.23;;;;;;;;;;2613129;54;20406;-79
2023/09/18 06:03:30;;;;;;;14.57;8.73;;;;;;;;;;2614104;54;20435;-78
2023/09/18 06:08:59;;;;;;;9.27;8.17;;;;;;;;;;2614995;54;20390;-78
2023/09/18 06:14:29;;;;;;;9.73;7.80;;;;;;;;;;2615879;54;20383;-79
2023/09/18 06:19:58;;;;;;;8.80;7.93;;;;;;;;;;2613640;54;20411;-78
2023/09/18 06:25:28;;;;;;;11.50;9.43;;;;;;;;;;2614991;54;20418;-78
2023/09/18 06:30:58;;;;;;;17.07;8.70;;;;;;;;;;2614314;54;20527;-79
2023/09/18 06:36:27;;;;;;;10.33;7.47;;;;;;;;;;2614900;54;20489;-78
2023/09/18 06:41:57;;;;;;;11.23;7.10;;;;;;;;;;2608442;54;20487;-79
2023/09/18 06:47:27;;;;;;;10.10;7.83;;;;;;;;;;2612950;46;20411;-79
2023/09/18 06:52:57;;;;;;;8.43;7.57;;;;;;;;;;2650543;36;20449;-79
2023/09/18 06:58:27;;;;;;;8.00;7.40;;;;;;;;;;2614276;54;20403;-78
2023/09/18 07:03:56;;;;;;;14.10;7.70;;;;;;;;;;2615128;54;20415;-78
2023/09/18 07:09:26;;;;;;;7.30;6.70;;;;;;;;;;2615300;54;20378;-78
2023/09/18 07:14:56;;;;;;;10.57;6.50;;;;;;;;;;2614022;54;20383;-80
2023/09/18 07:20:26;;;;;;;7.53;6.50;;;;;;;;;;2615916;54;20382;-80
2023/09/18 07:25:57;;;;;;;7.30;6.60;;;;;;;;;;2612793;54;20394;-79
2023/09/18 07:31:27;;;;;;;9.00;8.10;;;;;;;;;;2615048;54;20438;-80
2023/09/18 07:40:32;;;;;;;7.60;6.93;;;;;;;;;;2612474;54;20414;-79
2023/09/18 07:46:02;;;;;;;8.10;7.40;;;;;;;;;;2612996;54;20444;-79
2023/09/18 07:51:32;;;;;;;8.30;7.70;;;;;;;;;;2614421;54;21001;-80
2023/09/18 07:57:02;;;;;;;10.33;9.33;;;;;;;;;;2611768;39;20796;-79
2023/09/18 08:02:31;;;;;;;8.43;7.63;;;;;;;;;;2613234;54;20411;-79
2023/09/18 08:08:04;;;;;;;8.03;7.43;;;;;;;;;;2614215;54;20422;-79
2023/09/18 08:13:35;;;;;;;9.60;7.40;;;;;;;;;;2614150;54;20399;-79
2023/09/18 08:19:04;;;;;;;8.90;8.07;;;;;;;;;;2615230;54;20415;-80
2023/09/18 08:24:34;;;;;;;8.50;7.80;;;;;;;;;;2613780;54;20400;-79
2023/09/18 08:30:04;;;;;;;7.37;6.83;;;;;;;;;;2612632;54;20387;-79
2023/09/18 08:35:34;;;;;;;7.73;6.93;;;;;;;;;;2611340;54;20418;-79
2023/09/18 08:41:04;;;;;;;7.67;7.07;;;;;;;;;;2612443;54;20450;-79
2023/09/18 08:46:34;;;;;;;7.40;6.80;;;;;;;;;;2613001;54;20483;-80
2023/09/18 08:52:04;;;;;;;14.17;7.30;;;;;;;;;;2613571;54;20406;-80
2023/09/18 08:57:35;;;;;;;8.20;7.50;;;;;;;;;;2611427;54;20418;-79
2023/09/18 09:03:05;;;;;;;8.13;6.77;;;;;;;;;;2613126;54;20402;-79
2023/09/18 09:08:35;;;;;;;7.60;6.97;;;;;;;;;;2611986;31;20827;-78
2023/09/18 09:14:15;;;;;;;6.40;6.10;;;;;;;;;;2613676;54;20382;-79
2023/09/18 09:19:45;;;;;;;8.23;7.63;;;;;;;;;;2609464;54;20410;-79
2023/09/18 09:25:27;;;;;;;7.70;7.20;;;;;;;;;;2609515;54;20415;-78
2023/09/18 09:31:02;;;;;;;8.00;7.37;;;;;;;;;;2612064;54;20540;-79
2023/09/18 09:36:33;;;;;;;7.70;7.17;;;;;;;;;;2611576;54;20379;-79
2023/09/18 09:45:06;;;;;;;7.87;7.40;;;;;;;;;;2611794;54;20404;-79
2023/09/18 09:56:53;;;;;;;9.50;9.00;;;;;;;;;;2615640;54;20408;-79
2023/09/18 10:02:24;;;;;;;8.77;8.20;;;;;;;;;;2614185;54;20407;-80
2023/09/18 10:07:55;;;;;;;8.93;8.00;;;;;;;;;;2615248;54;20350;-80
2023/09/18 10:19:47;;;;;;;8.60;8.10;;;;;;;;;;2613794;39;20923;-80
2023/09/18 10:25:21;;;;;;;9.27;8.57;;;;;;;;;;2613244;54;20355;-79
2023/09/18 10:30:51;;;;;;;9.47;8.93;;;;;;;;;;2612250;39;20621;-79
2023/09/18 10:36:22;;;;;;;9.40;8.80;;;;;;;;;;2610652;54;20405;-80
2023/09/18 10:47:58;;;;;;;10.23;9.67;;;;;;;;;;2610517;39;20645;-78
2023/09/18 10:53:27;;;;;;;9.70;9.20;;;;;;;;;;2614072;54;20402;-78
2023/09/18 10:58:58;;;;;;;10.53;9.80;;;;;;;;;;2611154;54;20478;-78
2023/09/18 11:04:30;;;;;;;9.03;8.53;;;;;;;;;;2610368;54;20393;-78
2023/09/18 11:09:59;;;;;;;10.50;9.83;;;;;;;;;;2610941;54;20399;-78
2023/09/18 11:15:32;;;;;;;10.93;10.00;;;;;;;;;;2611815;39;20811;-78
2023/09/18 11:21:12;;;;;;;9.80;9.30;;;;;;;;;;2611422;54;20383;-78
2023/09/18 11:26:57;;;;;;;11.37;10.80;;;;;;;;;;2613845;54;20965;-78
2023/09/18 11:32:39;;;;;;;11.67;11.07;;;;;;;;;;2612091;54;20560;-78
2023/09/18 11:38:09;;;;;;;10.20;9.80;;;;;;;;;;2613071;54;20449;-78
2023/09/18 11:41:05;;;;;;;10.37;9.77;;;;;;;;;;2612048;54;20447;-78
2023/09/18 11:43:35;;;;;;;9.80;9.30;;;;;;;;;;2613443;54;20527;-78
2023/09/18 11:49:05;;;;;;;9.57;9.07;;;;;;;;;;2613987;54;20375;-78
2023/09/18 11:54:35;;;;;;;10.00;9.60;;;;;;;;;;2612765;46;20382;-79
2023/09/18 12:00:11;;;;;;;10.73;10.03;;;;;;;;;;2613617;54;20364;-78
2023/09/18 12:05:41;;;;;;;11.60;10.60;;;;;;;;;;2614366;54;20502;-78
2023/09/18 12:11:16;;;;;;;10.23;9.80;;;;;;;;;;2609297;54;20371;-79
2023/09/18 12:16:47;;;;;;;10.50;9.90;;;;;;;;;;2609880;54;20418;-79
2023/09/18 12:22:23;;;;;;;11.43;10.83;;;;;;;;;;2614406;39;20771;-79
2023/09/18 12:27:53;;;;;;;12.97;11.87;;;;;;;;;;2611625;54;20386;-79
2023/09/18 12:33:23;;;;;;;12.53;11.93;;;;;;;;;;2611569;54;20398;-79
2023/09/18 12:39:03;;;;;;;11.60;10.90;;;;;;;;;;2610742;54;20420;-78
2023/09/18 12:48:07;;;;;;;10.67;10.17;;;;;;;;;;2615699;39;20805;-78
2023/09/18 12:53:37;;;;;;;10.30;9.90;;;;;;;;;;2610729;54;20416;-78
2023/09/18 12:59:07;;;;;;;11.20;10.60;;;;;;;;;;2613432;54;20533;-79
2023/09/18 13:04:37;;;;;;;11.90;11.20;;;;;;;;;;2612410;54;20391;-80
2023/09/18 13:10:10;;;;;;;12.40;11.80;;;;;;;;;;2611756;54;20414;-80
2023/09/18 13:15:40;;;;;;;13.13;12.30;;;;;;;;;;2611706;54;20555;-80
2023/09/18 13:21:11;;;;;;;12.80;12.20;;;;;;;;;;2612073;54;20444;-80
2023/09/18 13:26:41;;;;;;;12.47;11.50;;;;;;;;;;2614785;54;20978;-79
2023/09/18 13:32:11;;;;;;;12.70;11.90;;;;;;;;;;2613235;54;20392;-79
2023/09/18 13:37:41;;;;;;;11.80;11.30;;;;;;;;;;2610830;54;20528;-80
2023/09/18 13:43:10;;;;;;;11.93;11.33;;;;;;;;;;2614276;54;20405;-79
2023/09/18 13:48:39;;;;;;;13.30;12.60;;;;;;;;;;2615189;46;20983;-79
2023/09/18 13:54:09;;;;;;;12.30;11.50;;;;;;;;;;2615457;54;20431;-79
2023/09/18 13:59:39;;;;;;;12.50;11.90;;;;;;;;;;2616460;54;20395;-79
2023/09/18 14:05:10;;;;;;;12.67;11.73;;;;;;;;;;2614856;54;20981;-80
2023/09/18 14:10:42;;;;;;;13.00;12.40;;;;;;;;;;2615562;54;20587;-79
2023/09/18 14:16:14;;;;;;;12.60;12.00;;;;;;;;;;2614568;54;20391;-78
2023/09/18 14:18:59;;;;;;;12.90;12.10;;;;;;;;;;2614422;54;20400;-78
2023/09/18 14:21:28;;;;;;;13.27;12.47;;;;;;;;;;2615837;39;20825;-79
2023/09/18 14:26:57;;;;;;;13.53;12.70;;;;;;;;;;2615493;54;20394;-78
2023/09/18 14:32:27;;;;;;;13.43;12.83;;;;;;;;;;2611375;54;20426;-77
2023/09/18 14:37:57;;;;;;;12.13;11.60;;;;;;;;;;2611873;54;20437;-78
2023/09/18 14:43:27;;;;;;;12.20;11.50;;;;;;;;;;2610811;54;20499;-78
2023/09/18 14:58:24;;;;;;;12.07;11.57;;;;;;;;;;2611556;54;20410;-78
2023/09/18 15:03:54;;;;;;;12.40;11.90;;;;;;;;;;2612960;54;20447;-79
2023/09/18 15:06:39;;;;;;;12.77;12.17;;;;;;;;;;2612436;54;20447;-78
2023/09/18 15:09:07;;;;;;;12.93;12.23;;;;;;;;;;2612253;47;20431;-78
2023/09/18 15:14:36;;;;;;;11.70;11.00;;;;;;;;;;2611438;54;20379;-79
2023/09/18 15:20:06;;;;;;;12.47;11.77;;;;;;;;;;2611713;54;20902;-80
2023/09/18 15:25:38;;;;;;;12.60;11.90;;;;;;;;;;2613114;54;20399;-79
2023/09/18 15:31:07;;;;;;;12.70;12.10;;;;;;;;;;2612671;54;20402;-81
2023/09/18 15:36:37;;;;;;;12.20;11.60;;;;;;;;;;2614141;54;20439;-81
2023/09/18 15:42:06;;;;;;;12.20;11.43;;;;;;;;;;2611761;54;21100;-79
2023/09/18 15:47:36;;;;;;;10.13;9.47;;;;;;;;;;2613983;54;20407;-79
2023/09/18 15:53:06;;;;;;;11.97;11.37;;;;;;;;;;2614742;54;20411;-79
2023/09/18 15:58:36;;;;;;;10.93;10.43;;;;;;;;;;2615047;54;20426;-80
2023/09/18 16:04:06;;;;;;;12.57;11.97;;;;;;;;;;2615613;39;20790;-80
2023/09/18 16:09:36;;;;;;;12.60;12.07;;;;;;;;;;2615100;54;21207;-80
2023/09/18 16:15:07;;;;;;;13.07;12.40;;;;;;;;;;2612297;54;20398;-80
2023/09/18 16:20:37;;;;;;;11.80;11.30;;;;;;;;;;2612121;54;20408;-80
2023/09/18 16:26:07;;;;;;;13.00;12.20;;;;;;;;;;2614954;39;20469;-80
2023/09/18 16:31:36;;;;;;;12.93;12.37;;;;;;;;;;2611908;54;20391;-81
2023/09/18 16:37:06;;;;;;;14.13;13.10;;;;;;;;;;2615402;54;21036;-79
2023/09/18 16:42:36;;;;;;;12.87;12.27;;;;;;;;;;2615535;54;20399;-78
2023/09/18 16:45:21;;;;;;;11.70;11.20;;;;;;;;;;2614064;47;20403;-78
2023/09/18 16:47:47;;;;;;;12.73;12.03;;;;;;;;;;2614099;54;20459;-80
2023/09/18 16:50:13;;;;;;;14.27;13.37;;;;;;;;;;2615270;54;20577;-78
2023/09/18 16:52:43;;;;;;;13.27;12.57;;;;;;;;;;2613698;39;20834;-79
2023/09/18 16:58:13;;;;;;;12.77;12.07;;;;;;;;;;2614637;39;20716;-78
2023/09/18 17:03:45;;;;;;;12.33;11.63;;;;;;;;;;2614925;54;20423;-79
2023/09/18 17:09:15;;;;;;;11.40;10.80;;;;;;;;;;2614091;54;20379;-80
2023/09/18 17:14:45;;;;;;;11.40;10.77;;;;;;;;;;2613556;54;20383;-79
2023/09/18 17:20:16;;;;;;;12.87;12.27;;;;;;;;;;2613605;54;20537;-78
2023/09/18 17:25:46;;;;;;;13.07;12.37;;;;;;;;;;2613940;39;20765;-80
2023/09/18 17:31:17;;;;;;;12.80;11.90;;;;;;;;;;2613052;54;20477;-79
2023/09/18 17:36:48;;;;;;;12.50;11.70;;;;;;;;;;2612267;46;20410;-80
2023/09/18 17:42:18;;;;;;;12.97;12.17;;;;;;;;;;2610925;54;20435;-80
2023/09/18 17:47:48;;;;;;;12.90;12.20;;;;;;;;;;2612151;54;20391;-82
2023/09/18 17:53:19;;;;;;;12.20;11.60;;;;;;;;;;2611850;54;20474;-84
2023/09/18 17:58:49;;;;;;;15.27;14.13;;;;;;;;;;2613570;54;20402;-80
2023/09/18 18:04:19;;;;;;;10.23;9.70;;;;;;;;;;2612954;31;20872;-80
2023/09/18 18:09:49;;;;;;;9.63;9.13;;;;;;;;;;2613003;54;20404;-80
2023/09/18 18:15:18;;;;;;;7.13;3.30;;;;;;;;;;2611818;54;20428;-79
2023/09/18 18:20:48;;;;;;;5.53;2.40;;;;;;;;;;2610951;54;21134;-79
2023/09/18 18:26:20;;;;;;;4.20;2.40;;;;;;;;;;2610071;54;20431;-80
2023/09/18 18:31:52;;;;;;;5.93;2.50;;;;;;;;;;2612648;39;21378;-80
2023/09/18 18:37:22;;;;;;;3.50;2.63;;;;;;;;;;2610334;54;20415;-80
2023/09/18 18:42:52;;;;;;;4.10;3.07;;;;;;;;;;2608507;54;20419;-81
2023/09/18 18:48:23;;;;;;;3.20;2.20;;;;;;;;;;2611422;54;20511;-81
2023/09/18 18:57:27;;;;;;;5.00;2.73;;;;;;;;;;2612936;54;20450;-82
2023/09/18 19:02:57;;;;;;;6.63;3.27;;;;;;;;;;2614768;54;20399;-82
2023/09/18 19:08:27;;;;;;;5.73;3.67;;;;;;;;;;2616185;54;20379;-83
2023/09/18 19:13:57;;;;;;;8.83;3.50;;;;;;;;;;2615853;46;20420;-81
2023/09/18 19:19:27;;;;;;;3.30;2.73;;;;;;;;;;2616509;31;20844;-81
2023/09/18 19:24:56;;;;;;;5.70;3.93;;;;;;;;;;2615761;31;20871;-82
2023/09/18 19:30:28;;;;;;;4.63;3.10;;;;;;;;;;2615030;54;20392;-80
2023/09/18 19:35:57;;;;;;;7.00;2.93;;;;;;;;;;2615006;54;20953;-81
2023/09/18 19:41:28;;;;;;;5.50;3.20;;;;;;;;;;2615417;54;20390;-81
2023/09/18 19:46:58;;;;;;;3.60;3.23;;;;;;;;;;2615323;54;20631;-81
2023/09/18 19:52:28;;;;;;;4.73;3.17;;;;;;;;;;2613899;54;21002;-80
2023/09/18 19:57:58;;;;;;;6.53;3.70;;;;;;;;;;2615279;54;20383;-82
2023/09/18 20:03:28;;;;;;;5.53;2.73;;;;;;;;;;2615540;54;20482;-83
2023/09/18 20:08:58;;;;;;;5.20;3.50;;;;;;;;;;2615087;54;20387;-82
2023/09/18 20:14:28;;;;;;;7.90;4.07;;;;;;;;;;2614092;54;20391;-80
2023/09/18 20:19:58;;;;;;;5.67;3.93;;;;;;;;;;2614981;54;20399;-81
2023/09/18 20:25:28;;;;;;;5.30;4.07;;;;;;;;;;2615055;54;20411;-80
2023/09/18 20:31:00;;;;;;;9.03;4.97;;;;;;;;;;2614646;54;20398;-81
2023/09/18 20:36:30;;;;;;;13.80;4.57;;;;;;;;;;2614424;54;20934;-80
2023/09/18 20:41:59;;;;;;;4.83;4.03;;;;;;;;;;2615361;54;20406;-81
2023/09/18 20:47:29;;;;;;;5.97;4.27;;;;;;;;;;2615442;54;20415;-80
2023/09/18 20:52:59;;;;;;;5.70;3.90;;;;;;;;;;2616160;54;20379;-80
2023/09/18 20:58:29;;;;;;;8.10;4.00;;;;;;;;;;2615985;54;20923;-80
2023/09/18 21:03:58;;;;;;;4.17;3.00;;;;;;;;;;2617220;39;20791;-79
2023/09/18 21:09:28;;;;;;;4.63;3.47;;;;;;;;;;2616279;39;20851;-80
2023/09/18 21:15:00;;;;;;;6.90;3.90;;;;;;;;;;2615686;54;20394;-80
2023/09/18 21:20:30;;;;;;;6.73;3.70;;;;;;;;;;2615707;54;20416;-80
2023/09/18 21:23:14;;;;;;;7.30;3.87;;;;;;;;;;2615237;47;20426;-81
2023/09/18 21:25:40;;;;;;;4.23;3.10;;;;;;;;;;2615455;39;20795;-80
2023/09/18 21:31:12;;;;;;;7.00;3.50;;;;;;;;;;2615455;54;20379;-80
2023/09/18 21:36:42;;;;;;;3.43;2.67;;;;;;;;;;2615223;54;20460;-80
2023/09/18 21:42:12;;;;;;;5.20;3.60;;;;;;;;;;2614268;54;20395;-80
2023/09/18 21:47:41;;;;;;;6.70;3.60;;;;;;;;;;2615855;54;20408;-80
2023/09/18 21:59:18;;;;;;;5.67;3.30;;;;;;;;;;2615748;39;20781;-79
2023/09/18 22:02:04;;;;;;;7.53;3.43;;;;;;;;;;2613276;47;20420;-80
2023/09/18 22:04:30;;;;;;;6.63;3.40;;;;;;;;;;2615129;54;20953;-80
2023/09/18 22:09:59;;;;;;;5.37;3.37;;;;;;;;;;2615226;54;20378;-79
2023/09/18 22:15:31;;;;;;;7.87;4.20;;;;;;;;;;2615996;54;20531;-80
2023/09/18 22:21:03;;;;;;;7.73;3.60;;;;;;;;;;2615023;54;20372;-81
2023/09/18 22:26:33;;;;;;;4.50;3.47;;;;;;;;;;2613898;54;20432;-80
2023/09/18 22:32:04;;;;;;;4.73;3.23;;;;;;;;;;2610440;54;20504;-80
2023/09/18 22:37:33;;;;;;;5.23;3.40;;;;;;;;;;2613655;39;20816;-80
2023/09/18 22:43:25;;;;;;;3.93;3.23;;;;;;;;;;2613916;54;20940;-81
2023/09/18 22:49:15;;;;;;;4.60;3.27;;;;;;;;;;2614549;54;20387;-80
2023/09/18 22:58:04;;;;;;;6.07;3.10;;;;;;;;;;2611405;54;20437;-79
2023/09/18 23:03:36;;;;;;;9.93;3.70;;;;;;;;;;2613363;54;20487;-78
2023/09/18 23:09:06;;;;;;;4.10;2.77;;;;;;;;;;2610803;54;20418;-78
2023/09/18 23:14:37;;;;;;;6.17;3.70;;;;;;;;;;2612101;54;20423;-79
2023/09/18 23:20:11;;;;;;;5.00;3.70;;;;;;;;;;2609343;54;20432;-79
2023/09/18 23:25:42;;;;;;;7.57;4.90;;;;;;;;;;2614691;54;20929;-79
2023/09/18 23:31:13;;;;;;;7.10;4.07;;;;;;;;;;2612178;54;20403;-79
2023/09/18 23:36:44;;;;;;;4.50;3.50;;;;;;;;;;2613445;54;20394;-78
2023/09/18 23:42:14;;;;;;;3.67;2.37;;;;;;;;;;2614250;54;20406;-79
2023/09/18 23:47:46;;;;;;;6.20;3.33;;;;;;;;;;2614957;39;20948;-79
2023/09/18 23:53:24;;;;;;;3.83;2.87;;;;;;;;;;2614417;54;20387;-78
2023/09/18 23:58:55;;;;;;;7.33;3.33;;;;;;;;;;2614818;54;20945;-79
